createdAt,value
2018-11-25T00:14:01.421Z,4.5
2018-11-25T00:19:01.300Z,4.6
2018-11-25T00:34:01.330Z,4.6
2018-11-25T00:49:01.336Z,4.6
2018-11-25T01:04:01.383Z,4.6
2018-11-25T01:19:01.252Z,4.6
2018-11-25T01:29:01.260Z,4.7
2018-11-25T01:44:01.396Z,4.7
2018-11-25T01:59:01.271Z,4.7
2018-11-25T02:14:01.362Z,4.7
2018-11-25T02:29:01.329Z,4.7
2018-11-25T02:44:01.287Z,4.7
2018-11-25T02:49:01.317Z,4.8
2018-11-25T03:04:01.354Z,4.8
2018-11-25T03:19:01.426Z,4.8
2018-11-25T03:34:01.340Z,4.8
2018-11-25T03:45:01.379Z,4.8
2018-11-25T03:55:01.327Z,4.7
2018-11-25T04:00:01.339Z,4.7
2018-11-25T04:15:01.440Z,4.7
2018-11-25T04:20:01.364Z,4.6
2018-11-25T04:30:01.554Z,4.5
2018-11-25T04:35:01.418Z,4.4
2018-11-25T04:40:01.336Z,4.3
2018-11-25T04:45:01.356Z,4.3
2018-11-25T05:00:01.446Z,4.3
2018-11-25T05:05:01.350Z,4.4
2018-11-25T05:15:01.332Z,4.4
2018-11-25T05:30:01.406Z,4.4
2018-11-25T05:45:01.391Z,4.4
2018-11-25T06:00:01.406Z,4.4
2018-11-25T06:15:01.274Z,4.4
2018-11-25T06:25:01.277Z,4.5
2018-11-25T06:30:01.290Z,4.5
2018-11-25T06:46:03.255Z,4.5
2018-11-25T07:01:12.386Z,4.5
2018-11-25T07:16:03.044Z,4.5
2018-11-25T07:32:21.810Z,4.5
2018-11-25T07:48:22.880Z,4.5
2018-11-25T08:06:16.634Z,4.5
2018-11-25T08:24:12.649Z,4.5
2018-11-25T08:42:18.998Z,4.5
2018-11-25T08:59:07.291Z,4.5
2018-11-25T09:16:05.704Z,4.5
2018-11-25T09:32:04.653Z,4.5
2018-11-25T09:48:03.717Z,4.5
2018-11-25T13:05:01.647Z,5.4
2018-11-25T13:15:01.411Z,5.4
2018-11-25T13:20:01.459Z,5.3
2018-11-25T13:30:01.602Z,5.2
2018-11-25T13:40:01.459Z,5.1
2018-11-25T13:45:01.447Z,5.1
2018-11-25T14:00:01.664Z,5.1
2018-11-25T14:15:01.426Z,5.0
2018-11-25T14:25:01.396Z,5.1
2018-11-25T14:30:01.465Z,5.1
2018-11-25T14:45:01.397Z,5.1
2018-11-25T14:50:01.414Z,5.2
2018-11-25T15:00:01.479Z,5.2
2018-11-25T15:15:01.436Z,5.2
2018-11-25T15:20:01.560Z,5.3
2018-11-25T15:30:01.410Z,5.3
2018-11-25T15:45:01.409Z,5.3
2018-11-25T16:00:01.564Z,5.3
2018-11-25T16:15:01.538Z,5.3
2018-11-25T16:30:02.271Z,5.3
2018-11-25T16:45:01.324Z,5.3
2018-11-25T17:00:01.390Z,5.3
2018-11-25T17:15:01.428Z,5.3
2018-11-25T17:30:01.391Z,5.3
2018-11-25T17:45:01.313Z,5.2
2018-11-25T18:00:01.393Z,5.2
2018-11-25T18:15:01.355Z,5.3
2018-11-25T18:30:01.585Z,5.3
2018-11-25T18:45:01.383Z,5.3
2018-11-25T18:55:01.350Z,5.2
2018-11-25T19:00:01.269Z,5.2
2018-11-25T19:05:01.256Z,5.1
2018-11-25T19:21:01.439Z,5.2
2018-11-25T19:36:01.636Z,5.2
2018-11-25T19:51:01.396Z,5.2
2018-11-25T20:06:01.437Z,5.1
2018-11-25T20:21:01.400Z,5.1
2018-11-25T20:36:01.374Z,5.1
2018-11-25T20:51:01.324Z,5.1
2018-11-25T21:06:01.351Z,5.2
2018-11-25T21:21:01.373Z,5.2
2018-11-25T21:36:01.341Z,5.2
2018-11-25T21:51:01.326Z,5.2
2018-11-25T22:06:01.293Z,5.2
2018-11-25T22:21:01.308Z,5.2
2018-11-25T22:36:01.324Z,5.2
2018-11-25T22:51:01.257Z,5.2
2018-11-25T22:56:01.268Z,5.1
2018-11-25T23:12:01.416Z,5.1
2018-11-25T23:27:01.326Z,5.1
2018-11-25T23:32:01.322Z,5.0
2018-11-25T23:47:01.333Z,4.9
